Time;durP1;ratioP1;P1;durP2;ratioP2;P2;SDS_P1;SDS_P2;PMS_P1;PMS_P2;Temp;Humidity;BMP_temperature;BMP_pressure;BME280_temperature;BME280_humidity;BME280_pressure;Samples;Min_cycle;Max_cycle;Signal;HPM_P1;HPM_P2
2021/01/10 00:00:34;;;;;;;2.47;0.30;;;14.60;50.80;;;;;;5890423;24;20009;-86
2021/01/10 00:03:57;;;;;;;2.58;0.73;;;14.70;50.70;;;;;;5908204;24;20021;-89
2021/01/10 00:18:30;;;;;;;2.10;0.40;;;14.80;50.40;;;;;;5846849;24;20044;-87
2021/01/10 00:22:11;;;;;;;;;;;;;;;;;;;;;
2021/01/10 00:33:33;;;;;;;2.72;0.40;;;14.80;50.20;;;;;;5912511;23;20293;-88
2021/01/10 00:40:03;;;;;;;1.80;0.28;;;14.80;50.20;;;;;;6002275;23;20024;-88
2021/01/10 00:44:27;;;;;;;1.27;0.25;;;14.80;50.20;;;;;;6162450;23;20018;-87
2021/01/10 00:47:59;;;;;;;;;;;;;;;;;;;;;
2021/01/10 01:02:49;;;;;;;2.80;0.47;;;14.80;50.20;;;;;;6245754;23;20036;-87
2021/01/10 01:06:25;;;;;;;2.13;0.57;;;14.80;50.10;;;;;;6225318;23;20081;-86
2021/01/10 01:09:39;;;;;;;3.17;0.82;;;14.80;50.10;;;;;;6102370;23;20310;-88
2021/01/10 01:16:39;;;;;;;1.63;0.47;;;14.80;50.00;;;;;;6232394;22;20308;-88
2021/01/10 01:23:45;;;;;;;1.92;0.50;;;14.70;49.80;;;;;;6159829;22;20028;-88
2021/01/10 01:27:15;;;;;;;;;;;;;;;;;;;;;
2021/01/10 01:37:31;;;;;;;2.63;0.65;;;14.80;49.60;;;;;;6278421;22;20157;-87
2021/01/10 01:48:04;;;;;;;3.80;0.98;;;14.70;49.50;;;;;;6162605;22;20013;-88
2021/01/10 01:51:24;;;;;;;3.20;0.70;;;14.80;49.50;;;;;;6254163;22;20034;-87
2021/01/10 01:54:48;;;;;;;3.60;0.50;;;14.80;49.40;;;;;;6226296;22;20468;-89
2021/01/10 02:01:37;;;;;;;1.88;0.60;;;14.80;49.40;;;;;;6272924;22;20016;-88
2021/01/10 02:05:02;;;;;;;2.45;0.90;;;14.70;49.30;;;;;;6254355;22;20008;-88
2021/01/10 02:14:23;;;;;;;2.75;0.63;;;14.70;49.40;;;;;;6187517;23;20035;-87
2021/01/10 02:21:24;;;;;;;3.20;0.50;;;14.70;49.10;;;;;;6223961;22;20306;-89
2021/01/10 02:24:24;;;;;;;1.00;0.30;;;14.70;49.10;;;;;;6239936;23;20036;-87
2021/01/10 02:27:24;;;;;;;4.50;0.60;;;14.70;49.00;;;;;;6163266;23;20012;-88
2021/01/10 02:30:33;;;;;;;3.13;0.93;;;14.70;48.90;;;;;;6134862;23;20020;-87
2021/01/10 02:34:01;;;;;;;3.30;0.80;;;14.70;48.90;;;;;;6160515;23;20311;-89
2021/01/10 02:37:21;;;;;;;4.57;0.70;;;14.60;48.80;;;;;;6136626;23;20113;-88
2021/01/10 02:40:21;;;;;;;2.45;0.93;;;14.70;48.90;;;;;;6219542;23;20402;-88
2021/01/10 02:43:34;;;;;;;1.25;0.43;;;14.70;48.90;;;;;;6221908;23;20263;-86
2021/01/10 02:46:46;;;;;;;2.42;0.55;;;14.70;48.80;;;;;;6225388;23;20087;-87
2021/01/10 02:50:05;;;;;;;2.92;0.40;;;14.70;48.80;;;;;;6208032;23;20036;-87
2021/01/10 02:53:29;;;;;;;2.22;0.77;;;14.70;48.70;;;;;;6191437;23;20008;-89
2021/01/10 02:56:32;;;;;;;;;;;;;;;;;;;;;
2021/01/10 02:59:38;;;;;;;3.42;0.68;;;14.70;48.70;;;;;;6154307;23;20016;-88
2021/01/10 03:03:03;;;;;;;2.63;0.65;;;14.70;48.70;;;;;;6248325;23;20103;-87
2021/01/10 03:06:35;;;;;;;2.33;0.55;;;14.70;48.60;;;;;;6227209;23;20054;-88
2021/01/10 03:09:50;;;;;;;3.60;0.70;;;14.70;48.60;;;;;;6220105;23;20008;-87
2021/01/10 03:12:54;;;;;;;3.75;0.82;;;14.70;48.60;;;;;;6233040;22;20077;-86
2021/01/10 03:16:05;;;;;;;2.38;0.45;;;14.70;48.50;;;;;;6253725;22;20007;-88
2021/01/10 03:18:43;;;;;;;2.13;0.82;;;14.70;48.50;;;;;;6228250;22;20149;-86
2021/01/10 03:21:38;;;;;;;3.20;0.68;;;14.60;48.50;;;;;;6228962;22;20011;-89
2021/01/10 03:24:31;;;;;;;3.70;0.70;;;14.70;48.50;;;;;;6252886;22;20049;-88
2021/01/10 03:27:23;;;;;;;1.98;0.50;;;14.60;48.40;;;;;;6228452;22;20004;-87
2021/01/10 03:30:02;;;;;;;4.07;0.68;;;14.60;48.50;;;;;;6211160;22;20030;-86
2021/01/10 03:32:51;;;;;;;2.25;0.73;;;14.60;48.50;;;;;;6255913;22;20062;-87
2021/01/10 03:35:44;;;;;;;4.78;0.82;;;14.70;48.40;;;;;;6226860;22;20031;-88
2021/01/10 03:38:17;;;;;;;4.23;0.87;;;14.70;48.40;;;;;;6228751;22;20030;-87
2021/01/10 03:41:06;;;;;;;2.05;0.63;;;14.70;48.40;;;;;;6229393;22;20469;-88
2021/01/10 03:43:50;;;;;;;2.20;0.50;;;14.70;48.40;;;;;;6227645;22;20019;-86
2021/01/10 03:46:37;;;;;;;3.83;0.70;;;14.70;48.40;;;;;;6229922;22;20073;-87
2021/01/10 03:49:25;;;;;;;;;;;;;;;;;;;;;
2021/01/10 03:51:59;;;;;;;1.83;0.57;;;14.70;48.40;;;;;;6251181;22;20298;-87
2021/01/10 03:54:37;;;;;;;2.47;0.45;;;14.60;48.30;;;;;;6255304;22;20015;-87
2021/01/10 03:57:14;;;;;;;2.38;0.60;;;14.70;48.40;;;;;;6227761;22;20006;-87
2021/01/10 04:00:01;;;;;;;1.83;0.40;;;14.70;48.40;;;;;;6228829;22;20012;-86
2021/01/10 04:02:50;;;;;;;1.30;0.50;;;14.60;48.30;;;;;;6228402;22;20424;-87
2021/01/10 04:05:42;;;;;;;1.90;0.63;;;14.70;48.30;;;;;;6254972;22;20022;-86
2021/01/10 04:08:21;;;;;;;4.15;0.70;;;14.70;48.40;;;;;;6228622;22;20343;-87
2021/01/10 04:11:05;;;;;;;2.47;0.40;;;14.60;48.30;;;;;;6216024;23;20008;-87
2021/01/10 04:13:54;;;;;;;3.10;0.82;;;14.70;48.40;;;;;;6221808;23;20082;-87
2021/01/10 04:16:30;;;;;;;;;;;;;;;;;;;;;
2021/01/10 04:19:22;;;;;;;4.43;0.85;;;14.70;48.30;;;;;;6249210;23;20389;-87
2021/01/10 04:22:28;;;;;;;2.42;0.70;;;14.70;48.30;;;;;;6199304;23;20004;-87
2021/01/10 04:25:09;;;;;;;1.88;0.55;;;14.60;48.20;;;;;;6197488;23;20035;-86
2021/01/10 04:27:50;;;;;;;2.55;0.60;;;14.70;48.30;;;;;;6223546;23;20000;-87
2021/01/10 04:30:33;;;;;;;2.78;0.60;;;14.60;48.10;;;;;;6200116;23;20048;-88
2021/01/10 04:33:16;;;;;;;2.47;0.55;;;14.60;48.20;;;;;;6224298;23;20413;-86
2021/01/10 04:36:03;;;;;;;2.35;0.70;;;14.60;48.10;;;;;;6198500;23;20341;-86
2021/01/10 04:38:44;;;;;;;4.78;0.70;;;14.60;48.10;;;;;;6224767;23;20020;-87
2021/01/10 04:41:23;;;;;;;3.45;0.70;;;14.60;48.10;;;;;;6222304;23;20008;-88
2021/01/10 04:43:55;;;;;;;1.85;0.40;;;14.60;48.10;;;;;;6197302;23;20077;-86
2021/01/10 04:46:41;;;;;;;3.88;0.95;;;14.60;48.10;;;;;;6194602;23;20008;-87
2021/01/10 04:49:36;;;;;;;2.95;0.40;;;14.60;48.00;;;;;;6224229;23;20008;-88
2021/01/10 04:52:50;;;;;;;3.53;0.73;;;14.60;48.00;;;;;;6224025;23;20016;-89
2021/01/10 04:55:58;;;;;;;3.20;0.57;;;14.60;48.00;;;;;;6197144;23;20012;-87
2021/01/10 04:58:52;;;;;;;3.70;0.95;;;14.60;48.00;;;;;;6225448;23;20012;-87
2021/01/10 05:01:38;;;;;;;3.90;0.73;;;14.60;48.00;;;;;;6197808;23;20103;-87
2021/01/10 05:04:19;;;;;;;1.65;0.40;;;14.60;48.00;;;;;;6197349;23;20008;-87
2021/01/10 05:07:19;;;;;;;2.50;0.70;;;14.60;47.90;;;;;;6223365;23;20004;-88
2021/01/10 05:10:20;;;;;;;2.22;0.45;;;14.70;48.00;;;;;;6203378;22;20019;-87
2021/01/10 05:13:05;;;;;;;;;;;;;;;;;;;;;
2021/01/10 05:15:45;;;;;;;2.85;0.65;;;14.60;48.50;;;;;;6251909;22;20011;-88
2021/01/10 05:18:24;;;;;;;1.25;0.50;;;14.60;47.90;;;;;;6189217;23;20078;-89
2021/01/10 05:21:05;;;;;;;1.70;0.90;;;14.60;47.90;;;;;;6163507;23;20036;-89
2021/01/10 05:23:51;;;;;;;2.25;0.60;;;14.70;47.90;;;;;;6189754;23;20039;-86
2021/01/10 05:26:47;;;;;;;2.13;0.60;;;14.60;47.90;;;;;;6191272;23;20012;-87
2021/01/10 05:29:27;;;;;;;1.98;0.50;;;14.60;47.80;;;;;;6228417;22;20023;-88
2021/01/10 05:32:08;;;;;;;2.75;0.70;;;14.60;47.90;;;;;;6221082;22;20031;-87
2021/01/10 05:35:03;;;;;;;2.42;0.45;;;14.60;47.80;;;;;;6228232;22;20011;-87
2021/01/10 05:37:38;;;;;;;3.50;0.50;;;14.60;47.80;;;;;;6227042;22;20011;-88
2021/01/10 05:40:44;;;;;;;3.05;0.73;;;14.60;47.90;;;;;;6225168;22;20316;-89
2021/01/10 05:43:10;;;;;;;3.78;0.57;;;14.70;48.20;;;;;;6076452;23;20541;-83
2021/01/10 05:45:36;;;;;;;6.82;0.98;;;14.60;48.60;;;;;;6101437;23;20089;-82
2021/01/10 05:48:17;;;;;;;8.55;1.05;;;14.70;49.00;;;;;;6201235;22;20404;-85
2021/01/10 05:51:38;;;;;;;5.18;0.73;;;14.80;49.40;;;;;;6251908;22;20033;-87
2021/01/10 05:54:47;;;;;;;3.67;0.82;;;14.80;50.00;;;;;;6251877;22;20012;-85
2021/01/10 05:57:43;;;;;;;3.58;0.50;;;14.90;50.90;;;;;;6227220;22;20015;-89
2021/01/10 06:00:12;;;;;;;26.17;1.77;;;15.00;51.20;;;;;;6287417;22;20004;-80
2021/01/10 06:02:39;;;;;;;13.35;1.48;;;15.00;51.50;;;;;;6288600;22;20034;-81
2021/01/10 06:05:10;;;;;;;10.88;1.38;;;15.10;52.40;;;;;;6288625;22;20004;-81
2021/01/10 06:07:37;;;;;;;11.02;1.08;;;15.20;51.40;;;;;;6225100;22;20007;-83
2021/01/10 06:10:05;;;;;;;12.35;1.50;;;15.30;52.10;;;;;;6226002;22;20453;-82
2021/01/10 06:12:31;;;;;;;6.82;1.20;;;15.40;52.10;;;;;;6246231;23;20019;-83
2021/01/10 06:15:13;;;;;;;14.95;1.13;;;15.40;52.40;;;;;;6247096;23;20079;-84
2021/01/10 06:17:47;;;;;;;13.90;1.52;;;15.50;52.20;;;;;;6220920;23;20034;-83
2021/01/10 06:20:19;;;;;;;;;;;15.60;52.50;;;;;;6222313;23;20005;-83
2021/01/10 06:22:49;;;;;;;11.18;0.95;;;15.60;52.20;;;;;;6221392;23;20298;-85
2021/01/10 06:25:19;;;;;;;6.35;1.17;;;15.60;52.70;;;;;;6246172;23;20035;-84
2021/01/10 06:27:51;;;;;;;7.75;0.80;;;15.70;53.00;;;;;;6222433;23;20015;-86
2021/01/10 06:30:22;;;;;;;7.43;1.33;;;15.80;53.00;;;;;;6248934;23;20078;-84
2021/01/10 06:32:51;;;;;;;9.57;1.52;;;15.80;52.90;;;;;;6248482;23;20019;-83
2021/01/10 06:35:21;;;;;;;4.57;0.88;;;15.90;52.80;;;;;;6222768;23;20027;-84
2021/01/10 06:37:48;;;;;;;5.18;1.00;;;15.90;52.70;;;;;;6223404;23;20008;-86
2021/01/10 06:40:43;;;;;;;6.43;0.68;;;15.90;52.80;;;;;;6223241;23;20099;-86
2021/01/10 06:43:20;;;;;;;5.65;1.25;;;16.00;52.90;;;;;;6201074;23;20031;-83
2021/01/10 06:53:12;;;;;;;7.97;1.13;;;16.00;52.90;;;;;;6127118;23;20076;-84
2021/01/10 06:55:39;;;;;;;10.30;1.15;;;16.00;53.00;;;;;;6079510;23;20363;-84
2021/01/10 06:58:10;;;;;;;7.30;0.93;;;16.10;53.10;;;;;;6079478;23;20013;-86
2021/01/10 07:00:54;;;;;;;6.78;1.25;;;16.00;53.00;;;;;;6160584;23;20019;-84
2021/01/10 07:03:28;;;;;;;2.58;0.70;;;16.10;52.90;;;;;;6222715;23;20008;-85
2021/01/10 07:06:12;;;;;;;4.38;0.47;;;16.10;52.80;;;;;;6222541;23;20027;-86
2021/01/10 07:08:54;;;;;;;5.15;0.88;;;16.10;52.70;;;;;;6222829;23;20019;-84
2021/01/10 07:11:29;;;;;;;5.30;0.85;;;16.10;52.70;;;;;;6249035;22;20020;-87
2021/01/10 07:14:06;;;;;;;3.15;0.70;;;16.10;52.60;;;;;;6229040;22;20300;-84
2021/01/10 07:17:10;;;;;;;5.85;0.75;;;16.20;52.20;;;;;;6252579;22;20004;-86
2021/01/10 07:19:44;;;;;;;4.35;1.20;;;16.20;52.10;;;;;;6214362;22;20326;-85
2021/01/10 07:22:26;;;;;;;;;;;16.20;52.30;;;;;;6227772;22;20031;-85
2021/01/10 07:24:57;;;;;;;6.78;0.90;;;16.20;52.40;;;;;;6227894;22;19931;-85
2021/01/10 07:27:42;;;;;;;4.60;1.10;;;16.10;52.30;;;;;;6253931;22;20042;-87
2021/01/10 07:30:30;;;;;;;3.80;0.88;;;16.20;52.20;;;;;;6264185;22;20396;-86
2021/01/10 07:32:59;;;;;;;7.50;1.00;;;16.20;52.10;;;;;;6227590;22;20069;-85
2021/01/10 07:35:29;;;;;;;4.82;1.35;;;16.20;52.20;;;;;;6228018;22;20011;-80
2021/01/10 07:38:04;;;;;;;4.07;0.80;;;16.20;52.10;;;;;;6250167;22;20069;-83
2021/01/10 07:40:34;;;;;;;4.53;1.15;;;16.20;52.10;;;;;;6262591;22;20008;-85
2021/01/10 07:43:06;;;;;;;4.72;0.88;;;16.20;52.00;;;;;;6228171;22;20046;-85
2021/01/10 07:45:46;;;;;;;8.18;0.90;;;16.20;51.90;;;;;;6227576;22;20014;-84
2021/01/10 08:03:23;;;;;;;2.47;1.08;;;16.20;51.50;;;;;;6106139;23;20009;-86
2021/01/10 08:06:04;;;;;;;2.55;1.13;;;16.10;51.40;;;;;;6046551;23;20432;-86
2021/01/10 08:08:40;;;;;;;3.47;1.15;;;16.20;51.40;;;;;;6068312;22;20040;-85
2021/01/10 08:11:07;;;;;;;5.30;1.48;;;16.10;51.20;;;;;;6226833;22;20038;-88
2021/01/10 08:14:02;;;;;;;4.90;1.10;;;16.10;51.20;;;;;;6197026;23;20480;-88
2021/01/10 08:16:49;;;;;;;4.38;1.20;;;16.20;51.40;;;;;;6225244;23;20011;-86
2021/01/10 08:19:17;;;;;;;4.43;1.10;;;16.20;51.70;;;;;;6197425;23;20012;-86
2021/01/10 08:21:47;;;;;;;7.50;1.98;;;16.20;51.60;;;;;;6196986;23;20034;-87
2021/01/10 08:24:15;;;;;;;5.05;1.27;;;16.20;51.50;;;;;;6196623;23;20019;-82
2021/01/10 08:26:43;;;;;;;6.72;1.52;;;16.20;51.60;;;;;;6223009;23;20150;-84
2021/01/10 08:29:10;;;;;;;6.35;1.33;;;16.30;51.60;;;;;;6196744;23;20004;-78
2021/01/10 08:31:50;;;;;;;6.65;1.65;;;16.30;51.00;;;;;;6258170;23;20016;-84
2021/01/10 08:34:23;;;;;;;2.10;1.35;;;16.30;51.30;;;;;;6221561;23;20008;-83
2021/01/10 08:36:56;;;;;;;6.43;2.53;;;16.30;51.50;;;;;;6197031;23;20039;-84
2021/01/10 08:39:27;;;;;;;4.05;1.60;;;16.30;51.50;;;;;;6196871;23;20282;-84
2021/01/10 08:41:55;;;;;;;6.75;1.90;;;16.30;51.50;;;;;;6197295;23;20090;-86
2021/01/10 08:44:25;;;;;;;4.93;2.10;;;16.40;51.60;;;;;;6193230;23;20107;-83
2021/01/10 08:46:52;;;;;;;7.85;1.83;;;16.40;51.60;;;;;;6221846;23;20008;-84
2021/01/10 08:49:27;;;;;;;4.13;1.85;;;16.40;51.50;;;;;;6221926;23;20015;-83
2021/01/10 08:51:53;;;;;;;13.38;1.85;;;16.40;51.40;;;;;;6197619;23;20004;-83
2021/01/10 08:54:21;;;;;;;6.90;2.00;;;16.40;51.60;;;;;;6221412;23;20008;-83
2021/01/10 08:56:52;;;;;;;8.77;2.63;;;16.40;51.70;;;;;;6221807;23;20023;-83
2021/01/10 08:59:19;;;;;;;5.15;2.25;;;16.50;51.70;;;;;;6196595;23;20087;-82
2021/01/10 09:01:46;;;;;;;7.10;2.40;;;16.40;51.40;;;;;;6221655;23;20019;-83
2021/01/10 09:04:13;;;;;;;11.55;1.92;;;16.50;52.00;;;;;;6196540;23;20405;-78
2021/01/10 09:07:00;;;;;;;7.22;1.85;;;16.50;52.20;;;;;;6258490;23;20008;-82
2021/01/10 09:09:56;;;;;;;10.63;2.00;;;16.50;52.40;;;;;;6221916;23;20065;-82
2021/01/10 09:12:32;;;;;;;12.55;2.20;;;16.50;52.30;;;;;;6202713;23;20356;-83
2021/01/10 09:15:08;;;;;;;9.60;1.92;;;16.60;52.20;;;;;;6247463;23;20108;-81
2021/01/10 09:17:55;;;;;;;11.80;2.58;;;16.50;52.20;;;;;;6257635;23;20090;-81
2021/01/10 09:20:39;;;;;;;9.00;2.60;;;16.50;52.00;;;;;;6247429;23;20289;-82
2021/01/10 09:23:17;;;;;;;6.53;2.25;;;16.50;51.60;;;;;;6221308;23;20019;-85
2021/01/10 09:25:43;;;;;;;10.48;2.65;;;16.50;51.50;;;;;;6257854;23;20079;-81
2021/01/10 09:28:10;;;;;;;5.80;2.47;;;16.50;51.70;;;;;;6256813;23;20080;-81
2021/01/10 09:30:44;;;;;;;8.88;2.10;;;16.50;51.70;;;;;;6246481;23;20008;-86
2021/01/10 09:33:12;;;;;;;9.52;2.42;;;16.60;51.90;;;;;;6246603;23;20024;-81
2021/01/10 09:35:47;;;;;;;7.72;2.22;;;16.60;52.00;;;;;;6258159;22;20004;-81
2021/01/10 09:38:18;;;;;;;6.22;2.30;;;16.60;51.80;;;;;;6257825;23;20351;-81
2021/01/10 09:41:06;;;;;;;5.60;2.35;;;16.60;51.50;;;;;;6258167;22;20026;-81
2021/01/10 09:43:45;;;;;;;7.40;2.10;;;16.60;51.40;;;;;;6256923;23;20008;-81
2021/01/10 09:46:30;;;;;;;9.43;2.35;;;16.60;51.30;;;;;;6257312;23;20012;-82
2021/01/10 09:49:07;;;;;;;9.55;2.20;;;16.60;51.70;;;;;;6257101;23;20012;-77
2021/01/10 09:51:42;;;;;;;11.38;2.13;;;16.60;51.60;;;;;;6258489;22;20012;-77
2021/01/10 09:54:13;;;;;;;10.88;2.38;;;16.60;51.50;;;;;;6257336;22;20469;-78
2021/01/10 09:56:39;;;;;;;10.25;2.35;;;16.60;51.30;;;;;;6257919;22;20290;-81
2021/01/10 09:59:23;;;;;;;9.88;2.03;;;16.60;51.30;;;;;;6247655;23;20018;-80
2021/01/10 10:01:50;;;;;;;8.45;2.35;;;16.60;51.40;;;;;;6258487;23;20008;-81
2021/01/10 10:04:28;;;;;;;8.10;2.40;;;16.60;51.50;;;;;;6258481;23;20027;-81
2021/01/10 10:06:54;;;;;;;9.90;2.55;;;16.60;51.50;;;;;;6249680;22;20019;-80
2021/01/10 10:09:21;;;;;;;8.75;2.28;;;16.50;51.50;;;;;;6249837;22;20044;-81
2021/01/10 10:11:51;;;;;;;7.25;2.20;;;16.50;51.50;;;;;;6255919;23;20070;-80
2021/01/10 10:14:21;;;;;;;12.35;2.50;;;16.50;51.60;;;;;;6260225;23;20015;-81
2021/01/10 10:16:58;;;;;;;7.03;2.67;;;16.50;51.60;;;;;;6259368;23;20008;-80
2021/01/10 10:19:24;;;;;;;13.07;3.10;;;16.50;51.60;;;;;;6259914;22;20046;-76
2021/01/10 10:21:50;;;;;;;10.95;3.13;;;16.50;51.70;;;;;;6259755;23;20012;-77
2021/01/10 10:24:16;;;;;;;15.43;3.05;;;16.50;51.30;;;;;;6259772;23;20301;-77
2021/01/10 10:26:42;;;;;;;12.05;2.30;;;16.50;51.00;;;;;;6259732;23;20305;-77
2021/01/10 10:29:08;;;;;;;15.93;3.13;;;16.50;51.20;;;;;;6259735;22;20075;-80
2021/01/10 10:31:34;;;;;;;11.93;2.53;;;16.50;51.40;;;;;;6259748;23;20032;-77
2021/01/10 10:34:00;;;;;;;15.20;3.03;;;16.50;51.60;;;;;;6259914;23;20012;-78
2021/01/10 10:36:26;;;;;;;15.73;3.17;;;16.50;51.70;;;;;;6260027;23;20019;-83
2021/01/10 10:38:51;;;;;;;14.15;3.67;;;16.50;51.70;;;;;;6222948;23;20049;-76
2021/01/10 10:41:22;;;;;;;16.27;3.58;;;16.50;51.80;;;;;;6259507;23;20019;-82
2021/01/10 10:43:48;;;;;;;26.65;5.50;;;16.50;52.10;;;;;;6248307;23;20015;-78
2021/01/10 10:46:14;;;;;;;17.13;3.72;;;16.60;51.60;;;;;;6258829;23;20293;-80
2021/01/10 10:48:40;;;;;;;16.75;4.50;;;16.50;51.60;;;;;;6259776;23;20019;-79
2021/01/10 10:51:06;;;;;;;13.23;4.00;;;16.50;51.60;;;;;;6259804;23;20008;-80
2021/01/10 10:53:31;;;;;;;12.88;3.58;;;16.50;51.50;;;;;;6260133;23;20008;-79
2021/01/10 10:55:57;;;;;;;12.25;4.53;;;16.50;51.60;;;;;;6258844;23;20398;-79
2021/01/10 10:58:23;;;;;;;12.57;4.32;;;16.40;51.50;;;;;;6259958;23;20083;-79
2021/01/10 11:00:49;;;;;;;15.02;4.18;;;16.40;51.40;;;;;;6260236;23;20023;-80
2021/01/10 11:03:15;;;;;;;10.50;4.07;;;16.30;51.40;;;;;;6260095;23;20035;-80
2021/01/10 11:05:40;;;;;;;10.93;4.25;;;16.30;51.30;;;;;;6260102;22;20008;-79
2021/01/10 11:08:06;;;;;;;11.52;4.07;;;16.30;51.30;;;;;;6259713;23;20078;-80
2021/01/10 11:10:32;;;;;;;11.25;4.03;;;16.20;51.30;;;;;;6259585;23;20011;-80
2021/01/10 11:12:58;;;;;;;10.98;4.32;;;16.20;51.20;;;;;;6275044;22;20007;-79
2021/01/10 11:15:24;;;;;;;9.35;3.70;;;16.20;51.20;;;;;;6281013;22;20061;-80
2021/01/10 11:17:51;;;;;;;10.50;4.00;;;16.20;51.10;;;;;;6290993;22;20011;-79
2021/01/10 11:20:17;;;;;;;8.18;3.45;;;16.20;51.10;;;;;;6263833;22;20086;-80
2021/01/10 11:22:43;;;;;;;7.85;3.72;;;16.10;51.10;;;;;;6289899;22;20045;-79
2021/01/10 11:25:09;;;;;;;6.78;4.03;;;16.10;51.10;;;;;;6290400;22;20022;-79
2021/01/10 11:27:35;;;;;;;6.38;3.13;;;16.10;51.10;;;;;;6290377;22;20007;-80
2021/01/10 11:30:01;;;;;;;7.80;4.10;;;16.10;51.10;;;;;;6290078;22;20035;-80
2021/01/10 11:32:26;;;;;;;4.72;3.53;;;16.00;51.10;;;;;;6290488;22;20008;-80
2021/01/10 11:34:53;;;;;;;5.95;3.85;;;16.00;51.10;;;;;;6290037;22;20091;-79
2021/01/10 11:37:21;;;;;;;6.88;3.90;;;16.00;51.10;;;;;;6290580;22;20019;-79
2021/01/10 11:39:46;;;;;;;9.07;4.25;;;16.00;51.10;;;;;;6291012;22;20023;-80
2021/01/10 11:42:14;;;;;;;6.47;3.95;;;16.00;51.10;;;;;;6290229;22;20008;-80
2021/01/10 11:44:40;;;;;;;7.00;3.67;;;16.00;51.10;;;;;;6290340;22;20022;-80
2021/01/10 11:47:05;;;;;;;8.73;4.50;;;15.90;51.10;;;;;;6290244;22;20348;-81
2021/01/10 11:49:31;;;;;;;10.90;4.20;;;15.90;51.10;;;;;;6290300;22;20007;-79
2021/01/10 11:51:57;;;;;;;7.18;3.88;;;15.90;51.10;;;;;;6290126;22;20034;-79
2021/01/10 11:54:23;;;;;;;4.97;3.67;;;15.90;51.10;;;;;;6289834;22;20011;-79
2021/01/10 11:57:01;;;;;;;6.18;3.70;;;15.90;51.10;;;;;;6263110;22;20353;-87
2021/01/10 11:59:32;;;;;;;12.38;5.00;;;15.90;51.10;;;;;;6278548;22;20016;-84
2021/01/10 12:01:58;;;;;;;26.35;5.75;;;15.90;50.90;;;;;;6263054;22;20012;-81
2021/01/10 12:04:25;;;;;;;14.98;4.15;;;15.90;51.20;;;;;;6289708;22;20077;-79
2021/01/10 12:06:57;;;;;;;9.73;5.40;;;15.90;51.50;;;;;;6252834;22;20405;-76
2021/01/10 12:09:23;;;;;;;22.83;7.00;;;15.90;51.70;;;;;;6289436;22;20015;-77
2021/01/10 12:11:52;;;;;;;15.48;7.15;;;15.90;51.80;;;;;;6286695;22;20018;-81
2021/01/10 12:14:19;;;;;;;13.63;7.57;;;15.90;51.80;;;;;;6290171;22;20015;-80
2021/01/10 12:16:45;;;;;;;13.13;7.30;;;15.90;51.50;;;;;;6289946;22;20019;-82
2021/01/10 12:19:11;;;;;;;15.52;9.00;;;15.90;51.40;;;;;;6279576;22;20012;-81
2021/01/10 12:21:36;;;;;;;14.43;8.43;;;15.90;51.50;;;;;;6279383;22;20018;-81
2021/01/10 12:24:02;;;;;;;18.73;8.57;;;15.90;51.70;;;;;;6289571;22;20213;-79
2021/01/10 12:26:29;;;;;;;16.77;8.57;;;15.80;51.80;;;;;;6262428;22;20009;-83
2021/01/10 12:28:55;;;;;;;20.08;9.00;;;15.80;52.00;;;;;;6228118;22;20034;-78
2021/01/10 12:31:21;;;;;;;16.33;9.18;;;15.90;52.20;;;;;;6289063;22;20007;-76
2021/01/10 12:33:53;;;;;;;16.40;6.72;;;15.80;52.20;;;;;;6289339;22;20045;-82
2021/01/10 12:36:19;;;;;;;11.93;6.45;;;15.90;52.70;;;;;;6227104;22;20360;-82
2021/01/10 12:38:44;;;;;;;31.85;6.65;;;15.90;53.00;;;;;;6252541;22;20042;-80
2021/01/10 12:41:10;;;;;;;14.10;5.07;;;16.00;53.70;;;;;;6252268;22;20015;-81
2021/01/10 12:43:36;;;;;;;16.80;7.20;;;16.00;53.60;;;;;;6252022;22;20015;-83
2021/01/10 12:46:03;;;;;;;15.70;5.45;;;16.10;54.10;;;;;;6227402;22;20082;-82
2021/01/10 12:48:29;;;;;;;19.13;5.80;;;16.10;54.00;;;;;;6226971;22;20042;-82
2021/01/10 12:50:54;;;;;;;19.45;7.05;;;16.10;53.90;;;;;;6252218;22;20409;-82
2021/01/10 12:53:20;;;;;;;16.40;7.00;;;16.20;52.90;;;;;;6252295;22;20012;-82
2021/01/10 12:55:52;;;;;;;16.70;7.00;;;16.20;51.30;;;;;;6226070;22;20011;-80
2021/01/10 12:58:22;;;;;;;17.58;6.03;;;16.10;51.20;;;;;;6252114;22;20343;-81
2021/01/10 13:00:48;;;;;;;17.63;6.35;;;16.10;52.50;;;;;;6279091;22;20007;-82
2021/01/10 13:03:14;;;;;;;12.80;5.03;;;16.00;53.00;;;;;;6252156;22;20018;-80
2021/01/10 13:05:40;;;;;;;17.00;5.22;;;16.10;53.20;;;;;;6226468;22;20016;-83
2021/01/10 13:08:06;;;;;;;13.55;5.00;;;16.10;53.70;;;;;;6226895;22;20004;-82
2021/01/10 13:11:23;;;;;;;11.57;4.05;;;16.10;53.70;;;;;;6226485;22;20008;-84
2021/01/10 13:13:51;;;;;;;10.60;4.03;;;16.20;54.00;;;;;;6196662;23;20016;-80
2021/01/10 13:16:18;;;;;;;12.00;4.97;;;16.10;54.00;;;;;;6196600;23;20015;-82
2021/01/10 13:18:44;;;;;;;9.50;4.43;;;16.30;54.20;;;;;;6248078;23;20012;-81
2021/01/10 13:21:10;;;;;;;12.27;4.28;;;16.30;54.10;;;;;;6221420;23;20084;-80
2021/01/10 13:23:36;;;;;;;11.05;4.10;;;16.30;54.00;;;;;;6222315;23;20493;-81
2021/01/10 13:26:01;;;;;;;6.80;2.85;;;16.30;54.00;;;;;;6248656;23;20046;-82
2021/01/10 13:28:27;;;;;;;11.00;2.95;;;16.40;54.00;;;;;;6196457;23;20079;-82
2021/01/10 13:30:53;;;;;;;9.07;3.95;;;16.40;54.00;;;;;;6196731;23;20036;-82
2021/01/10 13:33:19;;;;;;;8.82;4.00;;;16.40;53.90;;;;;;6196725;23;20464;-82
2021/01/10 13:35:45;;;;;;;7.50;3.90;;;16.40;53.80;;;;;;6221629;23;20011;-83
2021/01/10 13:38:11;;;;;;;9.05;4.40;;;16.50;53.90;;;;;;6196521;23;20004;-83
2021/01/10 13:40:37;;;;;;;9.88;3.88;;;16.50;53.90;;;;;;6221897;23;20011;-82
2021/01/10 13:43:03;;;;;;;8.70;3.92;;;16.50;53.90;;;;;;6196040;23;20008;-82
2021/01/10 13:45:30;;;;;;;6.05;3.85;;;16.50;53.90;;;;;;6221547;23;20007;-82
2021/01/10 13:47:56;;;;;;;7.45;4.00;;;16.50;53.90;;;;;;6231564;23;20012;-83
2021/01/10 13:50:22;;;;;;;7.28;3.80;;;16.50;53.70;;;;;;6196236;23;20062;-83
2021/01/10 13:52:48;;;;;;;8.00;4.32;;;16.50;53.80;;;;;;6195578;23;20016;-84
2021/01/10 13:55:14;;;;;;;8.30;4.55;;;16.50;53.70;;;;;;6195740;23;20030;-83
2021/01/10 13:58:20;;;;;;;9.77;4.35;;;16.50;53.40;;;;;;6221010;23;20008;-83
2021/01/10 14:01:11;;;;;;;7.30;4.40;;;16.50;53.20;;;;;;6245136;23;20398;-83
2021/01/10 14:06:59;;;;;;;;;;;16.50;53.20;;;;;;6220060;23;20008;-83
2021/01/10 14:09:39;;;;;;;8.05;3.17;;;16.40;53.20;;;;;;6196916;23;19942;-84
2021/01/10 14:22:08;;;;;;;6.80;5.05;;;16.60;53.80;;;;;;6224846;22;20032;31
2021/01/10 14:26:11;;;;;;;4.80;3.40;;;16.60;53.70;;;;;;6192742;23;20016;-83
2021/01/10 14:29:54;;;;;;;6.60;4.65;;;16.60;53.50;;;;;;6215125;23;20032;-83
2021/01/10 15:38:23;;;;;;;3.80;2.78;;;16.70;53.20;;;;;;6263103;22;20370;-84
2021/01/10 15:41:59;;;;;;;4.60;2.53;;;16.70;53.20;;;;;;6219924;23;20015;-83
2021/01/10 15:53:02;;;;;;;7.22;2.95;;;16.90;53.30;;;;;;6244160;23;20003;-80
2021/01/10 15:55:53;;;;;;;6.35;3.67;;;16.90;53.30;;;;;;6256915;23;20016;-83
2021/01/10 15:58:19;;;;;;;23.67;3.92;;;16.90;53.30;;;;;;6228382;22;20007;-80
2021/01/10 16:04:03;;;;;;;8.13;3.00;;;16.80;53.00;;;;;;6284026;22;20018;-83
2021/01/10 16:06:38;;;;;;;13.85;3.67;;;16.80;53.30;;;;;;6259110;22;20018;-85
2021/01/10 16:09:05;;;;;;;11.60;3.28;;;16.80;53.50;;;;;;6283906;22;20018;-85
2021/01/10 16:11:47;;;;;;;15.73;3.03;;;16.90;53.40;;;;;;6257624;22;20061;-87
2021/01/10 16:14:15;;;;;;;19.42;3.60;;;16.90;53.50;;;;;;6259148;22;20011;-84
2021/01/10 16:16:50;;;;;;;17.52;4.22;;;16.90;53.40;;;;;;6283374;22;20003;-87
2021/01/10 16:38:11;;;;;;;8.50;2.97;;;16.90;54.20;;;;;;6307113;22;20292;-77
2021/01/10 16:40:38;;;;;;;8.23;4.15;;;16.90;54.30;;;;;;6288661;22;20015;-77
2021/01/10 16:43:06;;;;;;;7.90;3.70;;;16.90;54.10;;;;;;6320347;22;20007;-77
2021/01/10 16:53:26;;;;;;;6.60;3.25;;;16.90;54.20;;;;;;6214072;23;20039;-83
2021/01/10 16:55:55;;;;;;;6.45;3.60;;;16.90;54.70;;;;;;6282980;22;20011;-85
2021/01/10 17:02:19;;;;;;;7.85;2.88;;;16.80;54.50;;;;;;6308846;22;20014;-86
2021/01/10 17:36:06;;;;;;;8.90;3.58;;;16.90;54.40;;;;;;6276267;22;20432;-79
2021/01/10 17:38:31;;;;;;;11.15;3.42;;;16.90;54.70;;;;;;6289192;22;20011;-82
2021/01/10 17:40:57;;;;;;;7.47;4.07;;;16.90;54.80;;;;;;6261953;22;20019;-83
2021/01/10 17:43:25;;;;;;;12.73;4.45;;;16.90;55.10;;;;;;6252532;22;20012;-83
2021/01/10 17:45:51;;;;;;;10.57;3.78;;;16.90;55.10;;;;;;6215442;23;20024;-82
2021/01/10 18:53:56;;;;;;;7.53;3.75;;;16.50;54.20;;;;;;6285937;22;20019;-81
2021/01/10 18:56:23;;;;;;;7.88;4.30;;;16.50;54.10;;;;;;6311291;22;20481;-83
2021/01/10 18:58:50;;;;;;;5.53;3.80;;;16.50;54.00;;;;;;6294477;22;20010;-83
2021/01/10 19:01:23;;;;;;;8.82;3.95;;;16.50;54.10;;;;;;6258470;22;20061;-85
2021/01/10 19:03:50;;;;;;;7.53;4.13;;;16.40;54.20;;;;;;6283755;22;20305;-84
2021/01/10 19:06:29;;;;;;;8.77;3.80;;;16.30;54.20;;;;;;6258568;22;20038;-84
2021/01/10 19:08:57;;;;;;;8.57;3.97;;;16.30;54.30;;;;;;6284443;22;20094;-83
2021/01/10 19:11:24;;;;;;;5.78;3.90;;;16.20;54.40;;;;;;6294670;22;20012;-83